sensor_id;sensor_type;location;lat;lon;timestamp;P1;durP1;ratioP1;P2;durP2;ratioP2
20140;SDS011;10231;47.702;9.826;2022-10-17T00:01:32;4.07;;;2.30;;
20140;SDS011;10231;47.702;9.826;2022-10-17T00:03:57;5.73;;;2.27;;
20140;SDS011;10231;47.702;9.826;2022-10-17T00:06:23;2.50;;;2.30;;
20140;SDS011;10231;47.702;9.826;2022-10-17T00:08:48;2.57;;;2.07;;
20140;SDS011;10231;47.702;9.826;2022-10-17T00:11:16;3.97;;;2.67;;
20140;SDS011;10231;47.702;9.826;2022-10-17T00:13:47;3.77;;;2.17;;
20140;SDS011;10231;47.702;9.826;2022-10-17T00:16:14;5.83;;;2.30;;
20140;SDS011;10231;47.702;9.826;2022-10-17T00:18:47;5.83;;;1.87;;
20140;SDS011;10231;47.702;9.826;2022-10-17T00:21:16;5.07;;;2.23;;
20140;SDS011;10231;47.702;9.826;2022-10-17T00:23:43;4.60;;;2.33;;
20140;SDS011;10231;47.702;9.826;2022-10-17T00:26:09;6.53;;;2.47;;
20140;SDS011;10231;47.702;9.826;2022-10-17T00:28:35;4.47;;;1.50;;
20140;SDS011;10231;47.702;9.826;2022-10-17T00:31:02;4.00;;;2.30;;
20140;SDS011;10231;47.702;9.826;2022-10-17T00:33:29;2.70;;;1.83;;
20140;SDS011;10231;47.702;9.826;2022-10-17T00:36:01;2.97;;;2.03;;
20140;SDS011;10231;47.702;9.826;2022-10-17T00:38:31;3.43;;;2.00;;
20140;SDS011;10231;47.702;9.826;2022-10-17T00:40:57;2.77;;;1.90;;
20140;SDS011;10231;47.702;9.826;2022-10-17T00:43:22;2.70;;;2.50;;
20140;SDS011;10231;47.702;9.826;2022-10-17T00:45:48;2.83;;;2.60;;
20140;SDS011;10231;47.702;9.826;2022-10-17T00:48:14;3.33;;;2.60;;
20140;SDS011;10231;47.702;9.826;2022-10-17T00:50:42;5.40;;;3.27;;
20140;SDS011;10231;47.702;9.826;2022-10-17T00:53:10;3.50;;;2.60;;
20140;SDS011;10231;47.702;9.826;2022-10-17T00:55:38;4.63;;;2.00;;
20140;SDS011;10231;47.702;9.826;2022-10-17T00:58:10;4.10;;;2.20;;
20140;SDS011;10231;47.702;9.826;2022-10-17T01:00:37;2.83;;;2.63;;
20140;SDS011;10231;47.702;9.826;2022-10-17T01:03:02;2.33;;;2.17;;
20140;SDS011;10231;47.702;9.826;2022-10-17T01:05:28;3.53;;;1.93;;
20140;SDS011;10231;47.702;9.826;2022-10-17T01:07:54;4.50;;;2.57;;
20140;SDS011;10231;47.702;9.826;2022-10-17T01:10:20;4.93;;;2.40;;
20140;SDS011;10231;47.702;9.826;2022-10-17T01:12:54;2.93;;;2.40;;
20140;SDS011;10231;47.702;9.826;2022-10-17T01:15:36;5.03;;;2.27;;
20140;SDS011;10231;47.702;9.826;2022-10-17T01:18:12;4.67;;;2.83;;
20140;SDS011;10231;47.702;9.826;2022-10-17T01:34:46;7.27;;;2.10;;
20140;SDS011;10231;47.702;9.826;2022-10-17T01:37:28;4.60;;;1.90;;
20140;SDS011;10231;47.702;9.826;2022-10-17T01:40:08;2.97;;;1.80;;
20140;SDS011;10231;47.702;9.826;2022-10-17T01:42:36;3.53;;;1.87;;
20140;SDS011;10231;47.702;9.826;2022-10-17T01:45:13;3.77;;;1.70;;
20140;SDS011;10231;47.702;9.826;2022-10-17T01:47:49;5.93;;;2.20;;
20140;SDS011;10231;47.702;9.826;2022-10-17T01:50:24;6.00;;;2.07;;
20140;SDS011;10231;47.702;9.826;2022-10-17T01:53:04;2.17;;;1.80;;
20140;SDS011;10231;47.702;9.826;2022-10-17T01:55:35;7.53;;;2.27;;
20140;SDS011;10231;47.702;9.826;2022-10-17T01:58:08;5.33;;;1.70;;
20140;SDS011;10231;47.702;9.826;2022-10-17T02:00:46;4.10;;;1.87;;
20140;SDS011;10231;47.702;9.826;2022-10-17T02:03:14;2.83;;;1.93;;
20140;SDS011;10231;47.702;9.826;2022-10-17T02:05:43;4.17;;;1.70;;
20140;SDS011;10231;47.702;9.826;2022-10-17T02:08:10;2.40;;;1.80;;
20140;SDS011;10231;47.702;9.826;2022-10-17T02:10:46;3.43;;;1.93;;
20140;SDS011;10231;47.702;9.826;2022-10-17T02:13:38;2.37;;;1.70;;
20140;SDS011;10231;47.702;9.826;2022-10-17T02:19:06;2.73;;;2.00;;
20140;SDS011;10231;47.702;9.826;2022-10-17T02:27:47;1.77;;;1.43;;
20140;SDS011;10231;47.702;9.826;2022-10-17T02:32:54;2.20;;;1.60;;
20140;SDS011;10231;47.702;9.826;2022-10-17T02:35:37;6.90;;;1.60;;
20140;SDS011;10231;47.702;9.826;2022-10-17T02:38:07;1.73;;;1.60;;
20140;SDS011;10231;47.702;9.826;2022-10-17T02:40:36;1.87;;;1.47;;
20140;SDS011;10231;47.702;9.826;2022-10-17T02:43:03;2.53;;;1.63;;
20140;SDS011;10231;47.702;9.826;2022-10-17T02:45:29;3.07;;;1.33;;
20140;SDS011;10231;47.702;9.826;2022-10-17T02:48:04;3.30;;;1.77;;
20140;SDS011;10231;47.702;9.826;2022-10-17T02:53:32;5.77;;;1.70;;
20140;SDS011;10231;47.702;9.826;2022-10-17T02:56:05;3.10;;;1.23;;
20140;SDS011;10231;47.702;9.826;2022-10-17T02:58:38;2.23;;;1.67;;
20140;SDS011;10231;47.702;9.826;2022-10-17T03:01:05;3.20;;;1.13;;
20140;SDS011;10231;47.702;9.826;2022-10-17T03:03:31;2.03;;;1.30;;
20140;SDS011;10231;47.702;9.826;2022-10-17T03:05:57;1.40;;;1.30;;
20140;SDS011;10231;47.702;9.826;2022-10-17T03:08:22;2.53;;;1.37;;
20140;SDS011;10231;47.702;9.826;2022-10-17T03:10:48;4.07;;;1.77;;
20140;SDS011;10231;47.702;9.826;2022-10-17T03:13:14;3.30;;;1.53;;
20140;SDS011;10231;47.702;9.826;2022-10-17T03:15:41;3.33;;;1.30;;
20140;SDS011;10231;47.702;9.826;2022-10-17T03:18:07;2.83;;;1.33;;
20140;SDS011;10231;47.702;9.826;2022-10-17T03:20:32;1.40;;;1.30;;
20140;SDS011;10231;47.702;9.826;2022-10-17T03:22:58;4.93;;;1.53;;
20140;SDS011;10231;47.702;9.826;2022-10-17T03:25:23;2.60;;;1.33;;
20140;SDS011;10231;47.702;9.826;2022-10-17T03:27:50;3.47;;;1.20;;
20140;SDS011;10231;47.702;9.826;2022-10-17T03:30:15;1.70;;;1.47;;
20140;SDS011;10231;47.702;9.826;2022-10-17T03:32:41;1.87;;;1.30;;
20140;SDS011;10231;47.702;9.826;2022-10-17T03:35:07;1.77;;;1.30;;
20140;SDS011;10231;47.702;9.826;2022-10-17T03:37:32;2.60;;;1.27;;
20140;SDS011;10231;47.702;9.826;2022-10-17T03:39:58;3.67;;;1.60;;
20140;SDS011;10231;47.702;9.826;2022-10-17T03:42:24;1.67;;;1.40;;
20140;SDS011;10231;47.702;9.826;2022-10-17T03:44:49;2.93;;;1.60;;
20140;SDS011;10231;47.702;9.826;2022-10-17T03:47:15;1.90;;;1.10;;
20140;SDS011;10231;47.702;9.826;2022-10-17T03:49:40;1.20;;;1.17;;
20140;SDS011;10231;47.702;9.826;2022-10-17T03:52:09;3.03;;;1.47;;
20140;SDS011;10231;47.702;9.826;2022-10-17T03:54:36;2.80;;;1.23;;
20140;SDS011;10231;47.702;9.826;2022-10-17T03:57:02;2.63;;;1.33;;
20140;SDS011;10231;47.702;9.826;2022-10-17T03:59:28;1.80;;;1.40;;
20140;SDS011;10231;47.702;9.826;2022-10-17T04:01:54;2.63;;;1.00;;
20140;SDS011;10231;47.702;9.826;2022-10-17T04:04:20;2.67;;;1.20;;
20140;SDS011;10231;47.702;9.826;2022-10-17T04:06:45;1.90;;;1.40;;
20140;SDS011;10231;47.702;9.826;2022-10-17T04:09:11;1.50;;;1.40;;
20140;SDS011;10231;47.702;9.826;2022-10-17T04:11:37;2.40;;;1.00;;
20140;SDS011;10231;47.702;9.826;2022-10-17T04:14:02;2.07;;;1.03;;
20140;SDS011;10231;47.702;9.826;2022-10-17T04:16:28;2.30;;;1.13;;
20140;SDS011;10231;47.702;9.826;2022-10-17T04:18:54;2.23;;;1.13;;
20140;SDS011;10231;47.702;9.826;2022-10-17T04:21:22;2.47;;;1.30;;
20140;SDS011;10231;47.702;9.826;2022-10-17T04:23:55;1.40;;;1.30;;
20140;SDS011;10231;47.702;9.826;2022-10-17T04:26:22;2.93;;;1.17;;
20140;SDS011;10231;47.702;9.826;2022-10-17T04:28:48;1.27;;;1.17;;
20140;SDS011;10231;47.702;9.826;2022-10-17T04:31:14;1.23;;;1.23;;
20140;SDS011;10231;47.702;9.826;2022-10-17T04:33:40;1.80;;;1.20;;
20140;SDS011;10231;47.702;9.826;2022-10-17T04:36:08;2.43;;;1.30;;
20140;SDS011;10231;47.702;9.826;2022-10-17T04:38:35;3.40;;;1.40;;
20140;SDS011;10231;47.702;9.826;2022-10-17T04:41:02;1.40;;;1.30;;
20140;SDS011;10231;47.702;9.826;2022-10-17T04:43:30;4.27;;;1.20;;
20140;SDS011;10231;47.702;9.826;2022-10-17T04:45:58;1.40;;;1.30;;
20140;SDS011;10231;47.702;9.826;2022-10-17T04:48:25;3.17;;;1.27;;
20140;SDS011;10231;47.702;9.826;2022-10-17T04:50:53;1.63;;;1.23;;
20140;SDS011;10231;47.702;9.826;2022-10-17T04:53:19;1.83;;;1.30;;
20140;SDS011;10231;47.702;9.826;2022-10-17T04:55:45;3.57;;;1.30;;
20140;SDS011;10231;47.702;9.826;2022-10-17T04:58:11;2.40;;;1.50;;
20140;SDS011;10231;47.702;9.826;2022-10-17T05:00:36;3.23;;;1.40;;
20140;SDS011;10231;47.702;9.826;2022-10-17T05:03:02;2.37;;;1.13;;
20140;SDS011;10231;47.702;9.826;2022-10-17T05:05:27;2.10;;;1.30;;
20140;SDS011;10231;47.702;9.826;2022-10-17T05:07:53;3.67;;;1.40;;
20140;SDS011;10231;47.702;9.826;2022-10-17T05:10:18;4.20;;;1.50;;
20140;SDS011;10231;47.702;9.826;2022-10-17T05:12:45;1.30;;;1.20;;
20140;SDS011;10231;47.702;9.826;2022-10-17T05:15:12;2.50;;;1.83;;
20140;SDS011;10231;47.702;9.826;2022-10-17T05:17:38;4.70;;;4.30;;
20140;SDS011;10231;47.702;9.826;2022-10-17T05:20:03;14.80;;;11.63;;
20140;SDS011;10231;47.702;9.826;2022-10-17T05:22:29;27.50;;;20.37;;
20140;SDS011;10231;47.702;9.826;2022-10-17T05:24:55;12.67;;;9.43;;
20140;SDS011;10231;47.702;9.826;2022-10-17T05:27:21;12.07;;;9.63;;
20140;SDS011;10231;47.702;9.826;2022-10-17T05:29:46;8.30;;;5.60;;
20140;SDS011;10231;47.702;9.826;2022-10-17T05:32:12;5.70;;;4.30;;
20140;SDS011;10231;47.702;9.826;2022-10-17T05:34:39;3.23;;;2.30;;
20140;SDS011;10231;47.702;9.826;2022-10-17T05:37:05;3.10;;;1.90;;
20140;SDS011;10231;47.702;9.826;2022-10-17T05:39:30;2.80;;;1.87;;
20140;SDS011;10231;47.702;9.826;2022-10-17T05:41:56;2.90;;;1.70;;
20140;SDS011;10231;47.702;9.826;2022-10-17T05:44:21;3.20;;;1.93;;
20140;SDS011;10231;47.702;9.826;2022-10-17T05:46:48;2.63;;;1.33;;
20140;SDS011;10231;47.702;9.826;2022-10-17T05:49:14;1.80;;;1.70;;
20140;SDS011;10231;47.702;9.826;2022-10-17T05:51:40;1.93;;;1.50;;
20140;SDS011;10231;47.702;9.826;2022-10-17T05:54:05;2.77;;;1.30;;
20140;SDS011;10231;47.702;9.826;2022-10-17T05:56:31;1.87;;;1.60;;
20140;SDS011;10231;47.702;9.826;2022-10-17T05:58:57;2.63;;;1.47;;
20140;SDS011;10231;47.702;9.826;2022-10-17T06:01:23;2.53;;;1.57;;
20140;SDS011;10231;47.702;9.826;2022-10-17T06:03:49;3.80;;;1.87;;
20140;SDS011;10231;47.702;9.826;2022-10-17T06:06:15;1.90;;;1.70;;
20140;SDS011;10231;47.702;9.826;2022-10-17T06:08:41;3.20;;;1.50;;
20140;SDS011;10231;47.702;9.826;2022-10-17T06:11:07;2.23;;;1.30;;
20140;SDS011;10231;47.702;9.826;2022-10-17T06:13:33;1.53;;;1.40;;
20140;SDS011;10231;47.702;9.826;2022-10-17T06:15:58;3.10;;;1.87;;
20140;SDS011;10231;47.702;9.826;2022-10-17T06:18:24;3.57;;;1.70;;
20140;SDS011;10231;47.702;9.826;2022-10-17T06:20:50;1.47;;;1.37;;
20140;SDS011;10231;47.702;9.826;2022-10-17T06:23:16;2.17;;;1.50;;
20140;SDS011;10231;47.702;9.826;2022-10-17T06:25:42;1.63;;;1.00;;
20140;SDS011;10231;47.702;9.826;2022-10-17T06:28:08;4.03;;;1.30;;
20140;SDS011;10231;47.702;9.826;2022-10-17T06:30:36;4.03;;;1.53;;
20140;SDS011;10231;47.702;9.826;2022-10-17T06:33:03;2.43;;;2.23;;
20140;SDS011;10231;47.702;9.826;2022-10-17T06:35:29;1.97;;;1.87;;
20140;SDS011;10231;47.702;9.826;2022-10-17T06:37:55;2.10;;;1.50;;
20140;SDS011;10231;47.702;9.826;2022-10-17T06:40:21;2.60;;;1.40;;
20140;SDS011;10231;47.702;9.826;2022-10-17T06:42:47;3.03;;;1.50;;
20140;SDS011;10231;47.702;9.826;2022-10-17T06:45:12;3.03;;;1.70;;
20140;SDS011;10231;47.702;9.826;2022-10-17T06:47:38;1.53;;;1.40;;
20140;SDS011;10231;47.702;9.826;2022-10-17T06:50:04;4.80;;;1.90;;
20140;SDS011;10231;47.702;9.826;2022-10-17T06:52:30;3.00;;;1.50;;
20140;SDS011;10231;47.702;9.826;2022-10-17T06:54:55;1.67;;;1.53;;
20140;SDS011;10231;47.702;9.826;2022-10-17T06:57:21;1.33;;;1.23;;
20140;SDS011;10231;47.702;9.826;2022-10-17T06:59:47;2.50;;;1.23;;
20140;SDS011;10231;47.702;9.826;2022-10-17T07:02:12;4.90;;;1.80;;
20140;SDS011;10231;47.702;9.826;2022-10-17T07:04:38;2.13;;;1.67;;
20140;SDS011;10231;47.702;9.826;2022-10-17T07:07:03;1.97;;;1.53;;
20140;SDS011;10231;47.702;9.826;2022-10-17T07:09:29;1.53;;;1.30;;
20140;SDS011;10231;47.702;9.826;2022-10-17T07:11:56;1.80;;;1.40;;
20140;SDS011;10231;47.702;9.826;2022-10-17T07:14:23;3.47;;;1.67;;
20140;SDS011;10231;47.702;9.826;2022-10-17T07:16:55;3.30;;;1.30;;
20140;SDS011;10231;47.702;9.826;2022-10-17T07:19:24;1.53;;;1.43;;
20140;SDS011;10231;47.702;9.826;2022-10-17T07:21:51;2.47;;;1.57;;
20140;SDS011;10231;47.702;9.826;2022-10-17T07:24:17;4.43;;;1.43;;
20140;SDS011;10231;47.702;9.826;2022-10-17T07:26:42;1.40;;;1.27;;
20140;SDS011;10231;47.702;9.826;2022-10-17T07:29:08;2.53;;;1.70;;
20140;SDS011;10231;47.702;9.826;2022-10-17T07:31:34;2.63;;;1.47;;
20140;SDS011;10231;47.702;9.826;2022-10-17T07:33:59;2.77;;;1.30;;
20140;SDS011;10231;47.702;9.826;2022-10-17T07:36:25;2.13;;;1.60;;
20140;SDS011;10231;47.702;9.826;2022-10-17T07:38:51;2.20;;;1.37;;
20140;SDS011;10231;47.702;9.826;2022-10-17T07:41:16;4.00;;;1.67;;
20140;SDS011;10231;47.702;9.826;2022-10-17T07:43:43;5.87;;;1.47;;
20140;SDS011;10231;47.702;9.826;2022-10-17T07:46:09;1.77;;;1.40;;
20140;SDS011;10231;47.702;9.826;2022-10-17T07:48:36;2.17;;;1.37;;
20140;SDS011;10231;47.702;9.826;2022-10-17T07:51:05;1.67;;;1.50;;
20140;SDS011;10231;47.702;9.826;2022-10-17T07:53:34;3.97;;;1.20;;
20140;SDS011;10231;47.702;9.826;2022-10-17T07:56:04;4.33;;;1.40;;
20140;SDS011;10231;47.702;9.826;2022-10-17T07:58:31;2.97;;;1.83;;
20140;SDS011;10231;47.702;9.826;2022-10-17T08:01:00;1.20;;;1.10;;
20140;SDS011;10231;47.702;9.826;2022-10-17T08:03:30;1.67;;;1.23;;
20140;SDS011;10231;47.702;9.826;2022-10-17T08:05:57;1.67;;;1.40;;
20140;SDS011;10231;47.702;9.826;2022-10-17T08:08:23;1.30;;;1.30;;
20140;SDS011;10231;47.702;9.826;2022-10-17T08:10:49;4.17;;;1.40;;
20140;SDS011;10231;47.702;9.826;2022-10-17T08:13:14;1.30;;;1.23;;
20140;SDS011;10231;47.702;9.826;2022-10-17T08:15:40;2.73;;;1.53;;
20140;SDS011;10231;47.702;9.826;2022-10-17T08:18:06;4.10;;;1.70;;
20140;SDS011;10231;47.702;9.826;2022-10-17T08:20:32;2.67;;;1.73;;
20140;SDS011;10231;47.702;9.826;2022-10-17T08:22:57;1.40;;;1.40;;
20140;SDS011;10231;47.702;9.826;2022-10-17T08:25:23;2.23;;;1.37;;
20140;SDS011;10231;47.702;9.826;2022-10-17T08:27:49;2.33;;;1.83;;
20140;SDS011;10231;47.702;9.826;2022-10-17T08:30:14;5.00;;;1.93;;
20140;SDS011;10231;47.702;9.826;2022-10-17T08:32:41;1.50;;;1.40;;
20140;SDS011;10231;47.702;9.826;2022-10-17T08:35:06;2.67;;;1.73;;
20140;SDS011;10231;47.702;9.826;2022-10-17T08:37:32;2.13;;;1.40;;
20140;SDS011;10231;47.702;9.826;2022-10-17T08:39:58;1.67;;;1.57;;
20140;SDS011;10231;47.702;9.826;2022-10-17T08:47:51;1.70;;;1.30;;
20140;SDS011;10231;47.702;9.826;2022-10-17T08:53:13;1.90;;;1.80;;
20140;SDS011;10231;47.702;9.826;2022-10-17T08:55:41;2.10;;;1.63;;
20140;SDS011;10231;47.702;9.826;2022-10-17T08:58:21;1.30;;;1.20;;
20140;SDS011;10231;47.702;9.826;2022-10-17T09:00:55;2.97;;;1.10;;
20140;SDS011;10231;47.702;9.826;2022-10-17T09:03:56;1.33;;;1.23;;
20140;SDS011;10231;47.702;9.826;2022-10-17T09:06:28;2.07;;;1.70;;
20140;SDS011;10231;47.702;9.826;2022-10-17T09:11:55;2.80;;;1.67;;
20140;SDS011;10231;47.702;9.826;2022-10-17T09:17:22;2.80;;;1.30;;
20140;SDS011;10231;47.702;9.826;2022-10-17T09:22:46;1.50;;;1.40;;
20140;SDS011;10231;47.702;9.826;2022-10-17T09:25:17;2.00;;;1.43;;
20140;SDS011;10231;47.702;9.826;2022-10-17T09:27:49;1.47;;;1.37;;
20140;SDS011;10231;47.702;9.826;2022-10-17T09:33:16;1.97;;;1.80;;
20140;SDS011;10231;47.702;9.826;2022-10-17T09:35:43;2.47;;;1.67;;
20140;SDS011;10231;47.702;9.826;2022-10-17T09:38:19;2.20;;;1.70;;
20140;SDS011;10231;47.702;9.826;2022-10-17T09:40:49;1.67;;;1.57;;
20140;SDS011;10231;47.702;9.826;2022-10-17T09:43:19;1.93;;;1.60;;
20140;SDS011;10231;47.702;9.826;2022-10-17T09:45:58;2.90;;;1.93;;
20140;SDS011;10231;47.702;9.826;2022-10-17T09:48:37;2.33;;;1.60;;
20140;SDS011;10231;47.702;9.826;2022-10-17T09:51:07;3.77;;;1.50;;
20140;SDS011;10231;47.702;9.826;2022-10-17T09:53:37;1.77;;;1.53;;
20140;SDS011;10231;47.702;9.826;2022-10-17T09:56:14;1.50;;;1.40;;
20140;SDS011;10231;47.702;9.826;2022-10-17T09:58:42;3.03;;;1.70;;
20140;SDS011;10231;47.702;9.826;2022-10-17T10:01:17;6.30;;;1.53;;
20140;SDS011;10231;47.702;9.826;2022-10-17T10:03:49;2.67;;;1.47;;
20140;SDS011;10231;47.702;9.826;2022-10-17T10:06:36;1.87;;;1.60;;
20140;SDS011;10231;47.702;9.826;2022-10-17T10:09:03;2.30;;;1.70;;
20140;SDS011;10231;47.702;9.826;2022-10-17T10:11:47;1.37;;;1.27;;
20140;SDS011;10231;47.702;9.826;2022-10-17T10:14:21;2.07;;;1.80;;
20140;SDS011;10231;47.702;9.826;2022-10-17T10:16:52;4.27;;;1.70;;
20140;SDS011;10231;47.702;9.826;2022-10-17T10:20:25;2.53;;;1.60;;
20140;SDS011;10231;47.702;9.826;2022-10-17T10:22:17;2.30;;;2.10;;
20140;SDS011;10231;47.702;9.826;2022-10-17T10:24:44;2.17;;;2.07;;
20140;SDS011;10231;47.702;9.826;2022-10-17T10:27:16;1.73;;;1.63;;
20140;SDS011;10231;47.702;9.826;2022-10-17T10:29:49;6.87;;;2.07;;
20140;SDS011;10231;47.702;9.826;2022-10-17T10:32:30;3.10;;;1.60;;
20140;SDS011;10231;47.702;9.826;2022-10-17T10:35:02;3.03;;;1.73;;
20140;SDS011;10231;47.702;9.826;2022-10-17T10:37:38;3.40;;;2.27;;
20140;SDS011;10231;47.702;9.826;2022-10-17T10:40:24;3.83;;;1.80;;
20140;SDS011;10231;47.702;9.826;2022-10-17T10:43:01;2.70;;;1.87;;
20140;SDS011;10231;47.702;9.826;2022-10-17T10:45:38;5.83;;;2.43;;
20140;SDS011;10231;47.702;9.826;2022-10-17T10:51:08;3.77;;;2.17;;
20140;SDS011;10231;47.702;9.826;2022-10-17T10:56:13;2.93;;;2.10;;
20140;SDS011;10231;47.702;9.826;2022-10-17T10:58:48;2.57;;;2.30;;
20140;SDS011;10231;47.702;9.826;2022-10-17T11:01:29;2.17;;;1.97;;
20140;SDS011;10231;47.702;9.826;2022-10-17T11:04:14;2.70;;;2.00;;
20140;SDS011;10231;47.702;9.826;2022-10-17T11:12:26;6.87;;;2.70;;
20140;SDS011;10231;47.702;9.826;2022-10-17T11:15:23;2.77;;;2.43;;
20140;SDS011;10231;47.702;9.826;2022-10-17T11:18:03;3.17;;;2.50;;
20140;SDS011;10231;47.702;9.826;2022-10-17T11:23:07;8.17;;;2.63;;
20140;SDS011;10231;47.702;9.826;2022-10-17T11:25:46;4.83;;;2.30;;
20140;SDS011;10231;47.702;9.826;2022-10-17T11:28:14;3.23;;;2.70;;
20140;SDS011;10231;47.702;9.826;2022-10-17T11:30:49;2.93;;;2.60;;
20140;SDS011;10231;47.702;9.826;2022-10-17T11:33:44;5.27;;;2.73;;
20140;SDS011;10231;47.702;9.826;2022-10-17T11:36:13;3.27;;;2.77;;
20140;SDS011;10231;47.702;9.826;2022-10-17T11:38:52;2.87;;;2.60;;
20140;SDS011;10231;47.702;9.826;2022-10-17T11:43:57;2.83;;;2.10;;
20140;SDS011;10231;47.702;9.826;2022-10-17T11:46:27;4.10;;;2.60;;
20140;SDS011;10231;47.702;9.826;2022-10-17T11:49:09;2.63;;;2.43;;
20140;SDS011;10231;47.702;9.826;2022-10-17T11:51:42;3.60;;;2.43;;
20140;SDS011;10231;47.702;9.826;2022-10-17T11:54:21;3.87;;;2.33;;
20140;SDS011;10231;47.702;9.826;2022-10-17T11:56:58;2.73;;;2.53;;
20140;SDS011;10231;47.702;9.826;2022-10-17T12:02:31;5.90;;;3.37;;
20140;SDS011;10231;47.702;9.826;2022-10-17T12:05:21;2.80;;;2.60;;
20140;SDS011;10231;47.702;9.826;2022-10-17T12:08:22;2.40;;;2.20;;
20140;SDS011;10231;47.702;9.826;2022-10-17T12:18:45;2.20;;;2.00;;
20140;SDS011;10231;47.702;9.826;2022-10-17T12:21:13;2.30;;;2.10;;
20140;SDS011;10231;47.702;9.826;2022-10-17T12:23:39;2.27;;;2.03;;
20140;SDS011;10231;47.702;9.826;2022-10-17T12:26:08;3.50;;;1.93;;
20140;SDS011;10231;47.702;9.826;2022-10-17T12:28:44;2.03;;;1.90;;
20140;SDS011;10231;47.702;9.826;2022-10-17T13:00:13;4.23;;;2.00;;
20140;SDS011;10231;47.702;9.826;2022-10-17T13:02:46;2.27;;;2.10;;
20140;SDS011;10231;47.702;9.826;2022-10-17T13:05:15;3.30;;;1.67;;
20140;SDS011;10231;47.702;9.826;2022-10-17T13:07:54;3.80;;;2.00;;
20140;SDS011;10231;47.702;9.826;2022-10-17T13:10:25;2.30;;;1.80;;
20140;SDS011;10231;47.702;9.826;2022-10-17T13:12:53;3.33;;;1.70;;
20140;SDS011;10231;47.702;9.826;2022-10-17T13:15:30;1.90;;;1.77;;
20140;SDS011;10231;47.702;9.826;2022-10-17T13:17:58;2.20;;;1.77;;
20140;SDS011;10231;47.702;9.826;2022-10-17T13:20:26;2.23;;;2.10;;
20140;SDS011;10231;47.702;9.826;2022-10-17T13:22:54;1.97;;;1.60;;
20140;SDS011;10231;47.702;9.826;2022-10-17T13:25:21;1.57;;;1.47;;
20140;SDS011;10231;47.702;9.826;2022-10-17T13:27:48;1.60;;;1.50;;
20140;SDS011;10231;47.702;9.826;2022-10-17T13:30:22;3.23;;;1.70;;
20140;SDS011;10231;47.702;9.826;2022-10-17T13:32:50;1.97;;;1.77;;
20140;SDS011;10231;47.702;9.826;2022-10-17T13:35:21;3.33;;;1.53;;
20140;SDS011;10231;47.702;9.826;2022-10-17T13:37:50;1.70;;;1.60;;
20140;SDS011;10231;47.702;9.826;2022-10-17T13:40:17;2.30;;;1.97;;
20140;SDS011;10231;47.702;9.826;2022-10-17T13:42:46;2.93;;;1.50;;
20140;SDS011;10231;47.702;9.826;2022-10-17T13:45:16;2.93;;;1.67;;
20140;SDS011;10231;47.702;9.826;2022-10-17T13:47:50;2.43;;;1.30;;
20140;SDS011;10231;47.702;9.826;2022-10-17T13:50:18;3.77;;;2.07;;
20140;SDS011;10231;47.702;9.826;2022-10-17T13:53:03;1.60;;;1.50;;
20140;SDS011;10231;47.702;9.826;2022-10-17T13:58:30;1.80;;;1.27;;
20140;SDS011;10231;47.702;9.826;2022-10-17T14:01:12;5.67;;;2.17;;
20140;SDS011;10231;47.702;9.826;2022-10-17T14:03:45;2.63;;;2.03;;
20140;SDS011;10231;47.702;9.826;2022-10-17T14:06:27;3.13;;;1.73;;
20140;SDS011;10231;47.702;9.826;2022-10-17T14:09:05;2.90;;;2.20;;
20140;SDS011;10231;47.702;9.826;2022-10-17T14:11:42;2.20;;;2.00;;
20140;SDS011;10231;47.702;9.826;2022-10-17T14:14:16;1.47;;;1.37;;
20140;SDS011;10231;47.702;9.826;2022-10-17T14:16:47;1.67;;;1.57;;
20140;SDS011;10231;47.702;9.826;2022-10-17T14:19:21;1.63;;;1.40;;
20140;SDS011;10231;47.702;9.826;2022-10-17T14:21:53;2.27;;;1.90;;
20140;SDS011;10231;47.702;9.826;2022-10-17T14:24:25;2.67;;;1.73;;
20140;SDS011;10231;47.702;9.826;2022-10-17T14:26:56;1.47;;;1.37;;
20140;SDS011;10231;47.702;9.826;2022-10-17T14:29:27;2.57;;;1.40;;
20140;SDS011;10231;47.702;9.826;2022-10-17T14:31:59;1.60;;;1.50;;
20140;SDS011;10231;47.702;9.826;2022-10-17T14:34:31;1.43;;;1.33;;
20140;SDS011;10231;47.702;9.826;2022-10-17T14:36:59;2.23;;;2.07;;
20140;SDS011;10231;47.702;9.826;2022-10-17T14:39:26;2.27;;;2.07;;
20140;SDS011;10231;47.702;9.826;2022-10-17T14:41:53;2.87;;;1.63;;
20140;SDS011;10231;47.702;9.826;2022-10-17T14:46:51;1.60;;;1.50;;
20140;SDS011;10231;47.702;9.826;2022-10-17T14:49:22;1.77;;;1.40;;
20140;SDS011;10231;47.702;9.826;2022-10-17T14:52:10;2.20;;;1.43;;
20140;SDS011;10231;47.702;9.826;2022-10-17T14:54:49;1.67;;;1.57;;
20140;SDS011;10231;47.702;9.826;2022-10-17T14:59:55;3.80;;;1.30;;
20140;SDS011;10231;47.702;9.826;2022-10-17T15:02:22;1.77;;;1.50;;
20140;SDS011;10231;47.702;9.826;2022-10-17T15:04:49;2.90;;;1.30;;
20140;SDS011;10231;47.702;9.826;2022-10-17T15:07:15;2.07;;;1.30;;
20140;SDS011;10231;47.702;9.826;2022-10-17T15:09:42;2.60;;;1.63;;
20140;SDS011;10231;47.702;9.826;2022-10-17T15:12:13;3.33;;;1.87;;
20140;SDS011;10231;47.702;9.826;2022-10-17T15:14:40;1.57;;;1.00;;
20140;SDS011;10231;47.702;9.826;2022-10-17T15:17:09;1.40;;;1.30;;
20140;SDS011;10231;47.702;9.826;2022-10-17T15:19:38;3.43;;;1.60;;
20140;SDS011;10231;47.702;9.826;2022-10-17T15:22:03;1.60;;;1.50;;
20140;SDS011;10231;47.702;9.826;2022-10-17T15:24:29;2.00;;;1.60;;
20140;SDS011;10231;47.702;9.826;2022-10-17T15:26:54;1.83;;;1.40;;
20140;SDS011;10231;47.702;9.826;2022-10-17T15:29:20;2.77;;;1.60;;
20140;SDS011;10231;47.702;9.826;2022-10-17T15:31:46;1.30;;;1.20;;
20140;SDS011;10231;47.702;9.826;2022-10-17T15:34:14;3.80;;;1.47;;
20140;SDS011;10231;47.702;9.826;2022-10-17T15:36:40;2.70;;;1.40;;
20140;SDS011;10231;47.702;9.826;2022-10-17T15:39:12;2.23;;;1.60;;
20140;SDS011;10231;47.702;9.826;2022-10-17T15:41:37;2.60;;;1.30;;
20140;SDS011;10231;47.702;9.826;2022-10-17T15:44:03;1.33;;;1.33;;
20140;SDS011;10231;47.702;9.826;2022-10-17T15:46:33;2.63;;;1.43;;
20140;SDS011;10231;47.702;9.826;2022-10-17T15:49:00;1.77;;;1.67;;
20140;SDS011;10231;47.702;9.826;2022-10-17T15:51:33;1.47;;;1.20;;
20140;SDS011;10231;47.702;9.826;2022-10-17T15:53:59;2.63;;;1.20;;
20140;SDS011;10231;47.702;9.826;2022-10-17T15:56:29;1.63;;;1.30;;
20140;SDS011;10231;47.702;9.826;2022-10-17T15:59:00;3.90;;;1.43;;
20140;SDS011;10231;47.702;9.826;2022-10-17T16:01:31;1.93;;;1.53;;
20140;SDS011;10231;47.702;9.826;2022-10-17T16:03:58;2.70;;;1.70;;
20140;SDS011;10231;47.702;9.826;2022-10-17T16:06:24;1.87;;;1.70;;
20140;SDS011;10231;47.702;9.826;2022-10-17T16:08:49;2.53;;;1.80;;
20140;SDS011;10231;47.702;9.826;2022-10-17T16:11:38;1.63;;;1.53;;
20140;SDS011;10231;47.702;9.826;2022-10-17T16:14:09;2.57;;;1.40;;
20140;SDS011;10231;47.702;9.826;2022-10-17T16:16:36;1.87;;;1.67;;
20140;SDS011;10231;47.702;9.826;2022-10-17T16:19:02;2.90;;;1.37;;
20140;SDS011;10231;47.702;9.826;2022-10-17T16:21:28;4.80;;;1.90;;
20140;SDS011;10231;47.702;9.826;2022-10-17T16:23:56;1.50;;;1.40;;
20140;SDS011;10231;47.702;9.826;2022-10-17T16:26:23;2.20;;;1.70;;
20140;SDS011;10231;47.702;9.826;2022-10-17T16:28:48;2.07;;;1.50;;
20140;SDS011;10231;47.702;9.826;2022-10-17T16:31:19;2.43;;;1.90;;
20140;SDS011;10231;47.702;9.826;2022-10-17T16:33:55;1.80;;;1.70;;
20140;SDS011;10231;47.702;9.826;2022-10-17T16:36:22;1.33;;;1.30;;
20140;SDS011;10231;47.702;9.826;2022-10-17T16:38:48;4.40;;;1.77;;
20140;SDS011;10231;47.702;9.826;2022-10-17T16:41:25;1.73;;;1.63;;
20140;SDS011;10231;47.702;9.826;2022-10-17T16:43:53;2.77;;;2.27;;
20140;SDS011;10231;47.702;9.826;2022-10-17T16:46:21;3.70;;;2.37;;
20140;SDS011;10231;47.702;9.826;2022-10-17T16:48:47;5.03;;;2.20;;
20140;SDS011;10231;47.702;9.826;2022-10-17T16:51:14;3.73;;;2.20;;
20140;SDS011;10231;47.702;9.826;2022-10-17T16:53:40;4.67;;;1.70;;
20140;SDS011;10231;47.702;9.826;2022-10-17T16:56:09;2.80;;;1.93;;